NSB weather

Bimini North Seaplane Base
Bimini, Bimini, Bahamas

Public forecast

Using degrees Celsius for public forecast. Weather courtesy of forecast.io.

METAR (pilot weather report)

Closest report is Fort Lauderdale Hollywood International Airport, 52.1 nm (96.5 km) WNW. Retrieved 2019/09/17 02:53 UTC (31 minutes ago):

KFLL 170253Z 01003KT 10SM SCT048 SCT080 BKN250 28/23 A2993 RMK AO2 SLP135 T02830233 51012

TAF (pilot weather forecast)

Forecast is more than 12 hours old.

Closest forecast is Fort Lauderdale Hollywood International Airport, 52.1 nm (96.5 km) WNW. Retrieved 2019/09/16 00:27 UTC (1 day ago):

TAF KFLL 162325Z 1700/1806 05009KT P6SM VCTS SCT035CB BKN070 FM170200 32005KT P6SM FEW025 SCT050 FM171400 34008KT P6SM SCT030 SCT250 FM171900 03012KT P6SM SCT035